Time;durP1;ratioP1;P1;durP2;ratioP2;P2;SDS_P1;SDS_P2;PMS_P1;PMS_P2;Temp;Humidity;BMP_temperature;BMP_pressure;BME280_temperature;BME280_humidity;BME280_pressure;Samples;Min_cycle;Max_cycle;Signal;HPM_P1;HPM_P2
2021/11/17 02:27:32;;;;;;;33.92;21.08;;;5.80;99.90;;;5.69;74.76;101415.38;4955727;29;20196;-73
2021/11/17 02:30:35;;;;;;;38.85;20.65;;;5.80;99.90;;;5.62;74.44;101406.25;4955660;29;20178;-72
2021/11/17 02:33:31;;;;;;;26.00;18.27;;;5.70;99.90;;;5.61;74.78;101409.94;4954926;29;20697;-73
2021/11/17 02:36:28;;;;;;;29.42;17.75;;;5.60;99.90;;;5.64;74.42;101409.63;4956018;29;20210;-73
2021/11/17 02:39:34;;;;;;;28.85;20.13;;;5.70;99.90;;;5.66;74.37;101402.22;4956146;29;20208;-73
2021/11/17 02:42:30;;;;;;;27.77;18.17;;;5.60;99.90;;;5.69;74.26;101407.31;4956115;28;20180;-73
2021/11/17 02:45:23;;;;;;;27.05;18.75;;;5.70;99.90;;;5.68;73.74;101407.47;4958278;28;20177;-73
2021/11/17 02:48:17;;;;;;;28.83;17.75;;;5.70;99.90;;;5.56;74.06;101404.22;4960815;28;20591;-72
2021/11/17 02:51:18;;;;;;;31.42;17.30;;;5.60;99.90;;;5.61;74.15;101407.28;4959187;29;20188;-72
2021/11/17 02:54:13;;;;;;;28.55;17.70;;;5.60;99.90;;;5.52;74.08;101402.81;4953829;29;20219;-72
2021/11/17 02:57:09;;;;;;;21.40;16.80;;;5.60;99.90;;;5.56;73.84;101406.91;4954117;29;20215;-72
2021/11/17 03:00:18;;;;;;;24.40;16.38;;;5.60;99.90;;;5.59;73.88;101398.50;4936169;29;20552;-72
2021/11/17 03:03:26;;;;;;;20.25;15.50;;;5.60;99.90;;;5.52;73.78;101399.28;4936778;29;20213;-72
2021/11/17 03:06:33;;;;;;;23.83;16.25;;;5.60;99.90;;;5.58;73.70;101404.03;4940979;29;20195;-72
2021/11/17 03:09:37;;;;;;;25.75;17.20;;;5.60;99.90;;;5.52;73.80;101407.34;4940709;29;20187;-73
2021/11/17 03:12:45;;;;;;;28.35;16.63;;;5.50;99.90;;;5.60;73.69;101405.56;4939698;29;20192;-72
2021/11/17 03:15:43;;;;;;;26.52;16.33;;;5.60;99.90;;;5.51;73.09;101406.53;4936169;29;20184;-73
2021/11/17 03:18:40;;;;;;;25.38;15.95;;;5.60;99.90;;;5.52;72.84;101413.53;4927239;29;20219;-72
2021/11/17 03:21:34;;;;;;;23.60;15.40;;;5.50;99.90;;;5.54;72.69;101408.88;4936081;29;20173;-72
2021/11/17 03:24:26;;;;;;;23.42;15.25;;;5.50;99.90;;;5.58;72.76;101412.94;4936869;29;20707;-72
2021/11/17 03:27:14;;;;;;;17.60;12.75;;;5.60;99.90;;;5.40;72.30;101404.06;4933534;29;20193;-72
2021/11/17 03:30:48;;;;;;;17.13;11.60;;;5.50;99.90;;;5.48;71.65;101405.97;4934973;29;20650;-72
2021/11/17 03:33:52;;;;;;;13.93;11.75;;;5.50;99.90;;;5.38;71.60;101413.28;4935162;29;20228;-73
2021/11/17 03:37:02;;;;;;;18.67;12.48;;;5.40;99.90;;;5.44;71.91;101402.75;4932203;29;20228;-72
2021/11/17 03:40:10;;;;;;;16.10;11.88;;;5.40;99.90;;;5.47;71.51;101415.03;4937100;29;20637;-72
2021/11/17 03:43:42;;;;;;;14.27;9.05;;;5.50;99.90;;;5.43;71.00;101413.66;4937849;29;20299;-72
2021/11/17 03:46:40;;;;;;;10.05;8.40;;;5.50;99.90;;;5.49;71.16;101403.13;4898973;29;20211;-72
2021/11/17 03:49:34;;;;;;;11.82;8.45;;;5.50;99.90;;;5.49;70.64;101407.66;4938047;29;20185;-72
2021/11/17 03:52:37;;;;;;;12.52;9.70;;;5.50;99.90;;;5.47;70.51;101402.44;4943420;29;20204;-73
2021/11/17 03:55:38;;;;;;;12.75;10.30;;;5.50;99.90;;;5.53;70.80;101396.44;4957778;28;20630;-72
2021/11/17 03:58:23;;;;;;;12.57;9.80;;;5.50;99.90;;;5.60;70.76;101400.19;4927419;28;20207;-73
2021/11/17 04:01:23;;;;;;;15.43;11.00;;;5.50;99.90;;;5.52;71.40;101391.22;4958532;28;20180;-72
2021/11/17 04:04:13;;;;;;;15.10;10.80;;;5.60;99.90;;;5.39;72.31;101390.81;4956989;28;20220;-72
2021/11/17 04:07:00;;;;;;;14.55;11.55;;;5.40;99.90;;;5.52;72.53;101393.91;4956735;29;20176;-73
2021/11/17 04:09:51;;;;;;;15.55;10.70;;;5.50;99.90;;;5.44;73.15;101393.88;4956703;29;20196;-73
2021/11/17 04:12:38;;;;;;;14.63;11.85;;;5.50;99.90;;;5.35;73.67;101394.81;4956466;29;20185;-73
2021/11/17 04:15:36;;;;;;;15.32;12.95;;;5.40;99.90;;;5.33;73.37;101394.09;4956848;28;20521;-73
2021/11/17 04:18:21;;;;;;;18.58;11.90;;;5.40;99.90;;;5.42;73.24;101407.44;4971220;28;20222;-73
2021/11/17 04:21:30;;;;;;;15.82;11.35;;;5.50;99.90;;;5.43;72.75;101397.53;4956288;29;20548;-72
2021/11/17 04:24:36;;;;;;;16.98;12.90;;;5.50;99.90;;;5.44;73.24;101393.88;4956376;28;20208;-72
2021/11/17 04:27:27;;;;;;;17.45;11.82;;;5.40;99.90;;;5.32;73.74;101395.13;4970890;28;20194;-73
2021/11/17 04:30:52;;;;;;;17.83;12.15;;;5.40;99.90;;;5.32;73.57;101390.59;4956312;28;20191;-72
2021/11/17 04:33:56;;;;;;;14.73;10.65;;;5.30;99.90;;;5.47;73.22;101404.31;4877619;29;20355;-73
2021/11/17 04:37:07;;;;;;;14.82;11.32;;;5.30;99.90;;;5.31;73.68;101402.34;4970927;28;20220;-73
2021/11/17 04:40:13;;;;;;;17.30;10.40;;;5.30;99.90;;;5.26;73.43;101396.59;4971464;28;20206;-73
2021/11/17 04:43:18;;;;;;;13.23;9.95;;;5.30;99.90;;;5.26;73.44;101391.22;4956231;28;20219;-73
2021/11/17 04:46:08;;;;;;;16.23;10.93;;;5.40;99.90;;;5.26;73.99;101393.91;4955192;29;20646;-72
2021/11/17 04:49:00;;;;;;;16.95;11.43;;;5.30;99.90;;;5.23;74.04;101387.00;4956189;29;20191;-73
2021/11/17 04:52:14;;;;;;;13.80;10.60;;;5.30;99.90;;;5.41;73.73;101389.66;4936684;29;20669;-73
2021/11/17 04:55:10;;;;;;;15.07;11.40;;;5.30;99.90;;;5.35;72.42;101392.97;4939804;29;20293;-73
2021/11/17 04:58:12;;;;;;;12.75;10.20;;;5.40;99.90;;;5.19;72.48;101392.84;4974005;28;20212;-72
2021/11/17 05:01:23;;;;;;;12.60;11.30;;;5.20;99.90;;;5.24;71.76;101388.69;4973047;28;20199;-72
2021/11/17 05:04:13;;;;;;;15.32;10.45;;;5.30;99.90;;;5.25;72.28;101389.53;4956019;28;20239;-72
2021/11/17 05:07:02;;;;;;;13.57;10.88;;;5.30;99.90;;;5.27;72.08;101398.28;4954621;29;20215;-71
2021/11/17 05:09:45;;;;;;;13.27;11.25;;;5.30;99.90;;;5.23;72.62;101391.50;4955670;28;20195;-73
2021/11/17 05:12:38;;;;;;;15.07;10.85;;;5.30;99.90;;;5.23;72.87;101399.56;4955551;29;20209;-72
2021/11/17 05:15:27;;;;;;;13.52;10.40;;;5.20;99.90;;;5.30;72.07;101397.97;4955484;28;20176;-72
2021/11/17 05:18:09;;;;;;;14.73;10.35;;;5.30;99.90;;;5.27;72.65;101398.28;4955042;29;20287;-72
2021/11/17 05:20:57;;;;;;;16.15;11.32;;;5.30;99.90;;;5.20;72.71;101391.84;4955616;29;20188;-72
2021/11/17 05:23:52;;;;;;;20.13;11.18;;;5.20;99.90;;;5.20;72.94;101399.88;4954830;29;20212;-72
2021/11/17 05:26:38;;;;;;;14.27;10.57;;;5.20;99.90;;;5.17;72.72;101393.00;4955091;28;20267;-74
2021/11/17 05:29:40;;;;;;;12.75;11.18;;;5.20;99.90;;;5.25;73.04;101389.53;4954982;29;20270;-72
2021/11/17 05:32:28;;;;;;;15.75;11.43;;;5.20;99.90;;;5.34;72.54;101398.47;4955127;29;20626;-72
2021/11/17 05:35:26;;;;;;;14.35;10.15;;;5.30;99.90;;;5.16;72.47;101390.47;4936156;29;20185;-73
2021/11/17 05:38:11;;;;;;;12.57;11.00;;;5.30;99.90;;;5.18;72.98;101389.31;4944745;29;20243;-71
2021/11/17 05:41:01;;;;;;;14.90;13.02;;;5.20;99.90;;;5.19;72.83;101384.78;4955077;28;20614;-73
2021/11/17 05:43:53;;;;;;;18.70;11.77;;;5.20;99.90;;;5.16;72.91;101385.94;4954859;28;20218;-73
2021/11/17 05:46:40;;;;;;;14.85;12.30;;;5.20;99.90;;;5.06;73.45;101389.72;4954612;29;20191;-70
2021/11/17 05:49:25;;;;;;;15.77;13.40;;;5.10;99.90;;;5.14;74.06;101387.09;4954450;29;20176;-71
2021/11/17 05:52:30;;;;;;;16.98;12.38;;;5.10;99.90;;;5.28;73.07;101389.22;4954205;29;20186;-72
2021/11/17 05:55:24;;;;;;;17.25;13.48;;;5.20;99.90;;;5.18;73.69;101393.84;4942502;28;20218;-72
2021/11/17 05:58:12;;;;;;;15.38;12.65;;;5.20;99.90;;;5.07;73.40;101397.63;4968979;28;20267;-72
2021/11/17 06:01:29;;;;;;;14.18;11.50;;;5.20;99.90;;;5.07;74.30;101394.09;4953193;29;20206;-74
2021/11/17 06:03:58;;;;;;;15.13;13.10;;;5.10;99.90;;;5.14;74.67;101398.66;4955154;28;20212;-73
2021/11/17 06:06:26;;;;;;;18.85;13.05;;;5.10;99.90;;;5.24;73.61;101404.78;4954566;29;20192;-73
2021/11/17 06:08:55;;;;;;;15.90;12.82;;;5.20;99.90;;;5.30;73.51;101403.31;4954593;29;20192;-73
2021/11/17 06:11:30;;;;;;;21.58;12.18;;;5.30;99.90;;;5.32;73.80;101401.34;4953632;29;20199;-74
2021/11/17 06:14:02;;;;;;;17.27;13.07;;;5.30;99.90;;;5.31;73.74;101405.03;4954606;29;20314;-74
2021/11/17 06:16:37;;;;;;;16.92;13.60;;;5.30;99.90;;;5.36;73.82;101399.19;4954555;29;20184;-73
2021/11/17 06:19:06;;;;;;;15.10;12.85;;;5.40;99.90;;;5.25;74.54;101403.78;4969273;28;20287;-73
2021/11/17 06:21:38;;;;;;;16.25;11.93;;;5.30;99.90;;;5.31;74.13;101406.84;4969197;28;20736;-73
2021/11/17 06:24:10;;;;;;;19.20;13.43;;;5.30;99.90;;;5.32;74.18;101408.56;4954558;29;20295;-74
2021/11/17 06:26:43;;;;;;;18.88;13.80;;;5.30;99.90;;;5.25;74.68;101402.94;4956172;28;20183;-73
2021/11/17 06:29:18;;;;;;;16.33;13.32;;;5.30;99.90;;;5.31;74.56;101402.34;4955647;28;20599;-72
2021/11/17 06:31:49;;;;;;;20.92;15.43;;;5.40;99.90;;;5.32;75.11;101401.34;4969687;28;20203;-73
2021/11/17 06:34:33;;;;;;;18.70;15.65;;;5.30;99.90;;;5.28;74.99;101416.03;4955149;28;20637;-72
2021/11/17 06:37:05;;;;;;;21.55;12.80;;;5.30;99.90;;;5.22;75.90;101405.97;4955550;28;20196;-74
2021/11/17 06:39:36;;;;;;;18.05;13.05;;;5.30;99.90;;;5.14;76.32;101408.56;4955686;28;20189;-75
2021/11/17 06:42:09;;;;;;;18.42;13.60;;;5.20;99.90;;;5.34;76.13;101403.84;4955544;29;20181;-74
2021/11/17 06:44:38;;;;;;;16.05;12.35;;;5.30;99.90;;;5.18;76.12;101404.59;4970646;28;20556;-75
2021/11/17 06:47:08;;;;;;;16.38;13.43;;;5.20;99.90;;;5.30;76.23;101411.38;4955870;28;20176;-74
2021/11/17 06:49:36;;;;;;;20.27;13.52;;;5.30;99.90;;;5.36;76.44;101412.59;4955294;29;20652;-74
2021/11/17 06:52:07;;;;;;;19.90;14.85;;;5.30;99.90;;;5.36;76.41;101408.09;4952958;29;20196;-74
2021/11/17 06:54:36;;;;;;;17.45;12.35;;;5.30;99.90;;;5.32;75.64;101401.34;4955031;29;20180;-74
2021/11/17 06:57:06;;;;;;;17.80;13.60;;;5.30;99.90;;;5.27;76.05;101403.66;4954522;29;20196;-75
2021/11/17 06:59:35;;;;;;;22.10;14.02;;;5.30;99.90;;;5.27;76.66;101406.34;4954511;29;20184;-74
2021/11/17 07:02:05;;;;;;;21.20;14.15;;;5.30;99.90;;;5.30;76.05;101406.00;4954273;29;20180;-74
2021/11/17 07:04:36;;;;;;;21.10;13.57;;;5.30;99.90;;;5.31;76.26;101404.19;4952760;29;20196;-74
2021/11/17 07:07:08;;;;;;;24.27;14.52;;;5.30;99.90;;;5.37;76.36;101409.78;4954136;28;20183;-73
2021/11/17 07:09:37;;;;;;;18.35;13.77;;;5.40;99.90;;;5.25;77.16;101411.00;4956545;29;20263;-75
2021/11/17 07:12:08;;;;;;;21.98;14.10;;;5.20;99.90;;;5.27;76.73;101416.22;4957474;29;20239;-75
2021/11/17 07:14:37;;;;;;;21.35;14.07;;;5.20;99.90;;;5.25;76.32;101419.06;4957843;28;20263;-76
2021/11/17 07:17:06;;;;;;;19.73;13.55;;;5.30;99.90;;;5.18;76.74;101412.63;4957763;29;20176;-74
2021/11/17 07:19:34;;;;;;;20.90;13.80;;;5.20;99.90;;;5.27;76.91;101417.06;4958033;29;20208;-74
2021/11/17 07:22:07;;;;;;;23.15;16.42;;;5.30;99.90;;;5.25;77.17;101416.38;4957751;28;20551;-74
2021/11/17 07:24:39;;;;;;;24.02;15.48;;;5.20;99.90;;;5.33;76.76;101424.47;4958317;29;20181;-73
2021/11/17 07:27:14;;;;;;;22.90;15.45;;;5.30;99.90;;;5.26;76.59;101418.06;4957796;29;20262;-75
2021/11/17 07:29:46;;;;;;;26.23;17.08;;;5.30;99.90;;;5.27;76.62;101417.06;4957508;29;20191;-74
2021/11/17 07:32:15;;;;;;;23.60;16.70;;;5.30;99.90;;;5.29;76.93;101425.78;4957775;29;20259;-73
2021/11/17 07:34:43;;;;;;;25.25;15.70;;;5.30;99.90;;;5.37;76.14;101422.34;4956396;29;20295;-74
2021/11/17 07:37:12;;;;;;;21.35;14.70;;;5.30;99.90;;;5.43;76.13;101427.06;4957278;29;20204;-75
2021/11/17 07:39:40;;;;;;;21.98;16.63;;;5.40;99.90;;;5.39;76.14;101429.22;4959483;29;20204;-72
2021/11/17 07:42:11;;;;;;;22.25;15.25;;;5.30;99.90;;;5.36;76.55;101421.50;4958807;29;20239;-74
2021/11/17 07:44:41;;;;;;;20.85;13.70;;;5.30;99.90;;;5.42;76.49;101415.47;4959222;28;20721;-74
2021/11/17 07:47:10;;;;;;;21.80;14.55;;;5.40;99.90;;;5.37;76.13;101414.28;4957525;28;20235;-74
2021/11/17 07:49:38;;;;;;;26.73;14.98;;;5.40;99.90;;;5.36;76.37;101418.81;4959181;29;20176;-73
2021/11/17 07:52:07;;;;;;;19.38;13.48;;;5.40;99.90;;;5.44;76.23;101426.06;4923459;28;20685;-74
2021/11/17 07:54:36;;;;;;;21.48;15.60;;;5.40;99.90;;;5.38;76.17;101429.38;4958111;28;20192;-74
2021/11/17 07:57:08;;;;;;;23.30;14.15;;;5.40;99.90;;;5.32;75.90;101421.97;4956723;29;20335;-74
2021/11/17 07:59:41;;;;;;;20.45;15.55;;;5.30;99.90;;;5.38;76.08;101426.69;4957549;28;20236;-75
2021/11/17 08:02:14;;;;;;;19.30;14.63;;;5.40;99.90;;;5.40;76.58;101432.75;4957517;29;20525;-73
2021/11/17 08:04:44;;;;;;;23.63;16.35;;;5.40;99.90;;;5.35;76.28;101433.22;4957806;29;20199;-76
2021/11/17 08:07:18;;;;;;;25.05;14.85;;;5.40;99.90;;;5.37;76.42;101433.94;4957353;28;20185;-73
2021/11/17 08:09:50;;;;;;;18.48;13.15;;;5.40;99.90;;;5.26;76.74;101428.78;4956936;28;20188;-73
2021/11/17 08:12:20;;;;;;;24.58;16.27;;;5.30;99.90;;;5.23;76.83;101426.41;4957193;28;20240;-76
2021/11/17 08:14:50;;;;;;;19.88;14.65;;;5.30;99.90;;;5.25;77.12;101424.41;4946184;28;20208;-74
2021/11/17 08:17:19;;;;;;;22.00;15.55;;;5.30;99.90;;;5.43;76.60;101427.91;4938155;29;20534;-74
2021/11/17 08:19:48;;;;;;;17.90;13.98;;;5.40;99.90;;;5.25;77.15;101416.38;4938339;29;20201;-75
2021/11/17 08:22:17;;;;;;;21.05;15.00;;;5.30;99.90;;;5.21;77.29;101423.03;4938644;29;20678;-75
2021/11/17 08:24:45;;;;;;;19.83;14.93;;;5.20;99.90;;;5.30;77.02;101423.94;4936986;29;20207;-74
2021/11/17 08:27:19;;;;;;;21.17;14.57;;;5.30;99.90;;;5.22;77.63;101425.59;4937875;29;20520;-73
2021/11/17 08:29:53;;;;;;;20.98;14.48;;;5.20;99.90;;;5.44;76.50;101416.19;4937830;29;20209;-73
2021/11/17 08:32:23;;;;;;;19.90;15.20;;;5.40;99.90;;;5.43;76.64;101414.50;4937752;29;20546;-74
2021/11/17 08:34:53;;;;;;;24.00;15.15;;;5.40;99.90;;;5.44;76.50;101421.56;4937981;29;20192;-74
2021/11/17 08:37:22;;;;;;;19.10;15.75;;;5.40;99.90;;;5.43;76.60;101411.81;4936140;29;20222;-75
2021/11/17 08:39:53;;;;;;;18.60;13.50;;;5.40;99.90;;;5.35;76.21;101406.38;4938008;29;20212;-75
2021/11/17 08:42:21;;;;;;;20.27;15.35;;;5.40;99.90;;;5.45;76.88;101400.94;4937287;29;20187;-75
2021/11/17 08:44:51;;;;;;;18.27;14.13;;;5.40;99.90;;;5.61;75.92;101395.69;4937502;29;20555;-74
2021/11/17 08:47:20;;;;;;;20.42;14.98;;;5.50;99.90;;;5.57;75.55;101397.81;4936000;29;20537;-74
2021/11/17 08:49:50;;;;;;;22.40;15.00;;;5.60;99.90;;;5.59;75.68;101403.88;4937271;29;20240;-74
2021/11/17 08:52:19;;;;;;;18.48;14.40;;;5.60;99.90;;;5.61;75.75;101411.78;4960394;28;20196;-73
2021/11/17 08:54:47;;;;;;;18.20;13.90;;;5.60;99.90;;;5.67;75.75;101405.75;4956439;29;20196;-75
2021/11/17 08:57:18;;;;;;;18.73;14.90;;;5.60;99.90;;;5.72;75.20;101413.34;4956689;29;20184;-73
2021/11/17 08:59:51;;;;;;;22.30;14.75;;;5.70;99.90;;;5.62;74.97;101408.94;4957197;29;20202;-74
2021/11/17 09:02:21;;;;;;;24.88;15.05;;;5.60;99.90;;;5.61;74.93;101409.94;4959994;28;20192;-73
2021/11/17 09:04:50;;;;;;;18.92;14.32;;;5.60;99.90;;;5.49;75.84;101416.56;4964419;29;20184;-74
2021/11/17 09:07:20;;;;;;;19.08;14.10;;;5.60;99.90;;;5.68;75.02;101411.00;4965001;29;20721;-73
2021/11/17 09:09:48;;;;;;;22.50;15.75;;;5.60;99.90;;;5.80;74.82;101408.03;4977535;28;20204;-75
2021/11/17 09:12:17;;;;;;;22.08;15.30;;;5.70;99.90;;;5.68;75.27;101405.63;4958596;28;20195;-75
2021/11/17 09:14:45;;;;;;;20.55;14.10;;;5.70;99.90;;;5.86;75.15;101402.88;4955797;28;20172;-72
2021/11/17 09:17:15;;;;;;;19.60;15.30;;;5.80;99.90;;;5.82;74.99;101412.25;4956156;28;20177;-74
2021/11/17 09:19:44;;;;;;;21.80;15.15;;;5.80;99.90;;;5.82;75.52;101406.88;4970937;28;20231;-74
2021/11/17 09:22:13;;;;;;;20.27;15.00;;;5.80;99.90;;;5.87;75.17;101406.44;4956244;28;20242;-73
2021/11/17 09:24:42;;;;;;;22.33;15.52;;;5.80;99.90;;;5.86;75.27;101402.00;4961343;28;20185;-73
2021/11/17 09:27:10;;;;;;;26.45;17.73;;;5.80;99.90;;;5.94;75.01;101408.34;4963534;28;20306;-74
2021/11/17 09:29:39;;;;;;;23.77;15.23;;;5.90;99.90;;;5.91;75.29;101413.16;4964164;28;20255;-74
2021/11/17 09:32:09;;;;;;;27.98;19.25;;;5.90;99.90;;;5.94;74.93;101416.38;4963037;28;20172;-73
2021/11/17 09:34:39;;;;;;;26.02;17.02;;;5.90;99.90;;;5.91;74.89;101410.47;4959267;28;20192;-72
2021/11/17 09:37:09;;;;;;;22.17;15.52;;;5.90;99.90;;;5.76;75.27;101404.00;4955584;28;20210;-74
2021/11/17 09:39:42;;;;;;;19.65;14.10;;;5.80;99.90;;;5.73;75.17;101397.09;4955486;28;20231;-73
2021/11/17 09:42:12;;;;;;;28.23;17.10;;;5.70;99.90;;;5.89;75.02;101393.69;4954536;28;20188;-73
2021/11/17 09:44:44;;;;;;;22.08;15.52;;;5.80;99.90;;;5.97;74.93;101399.94;4955356;28;20176;-73
2021/11/17 09:47:17;;;;;;;23.30;18.40;;;5.90;99.90;;;6.07;74.81;101397.97;4955708;28;20275;-74
2021/11/17 09:49:53;;;;;;;21.23;15.45;;;6.00;99.90;;;6.07;74.36;101391.75;4955581;28;20204;-73
2021/11/17 09:52:26;;;;;;;23.35;17.73;;;6.00;99.90;;;6.05;74.50;101399.16;4954766;29;20196;-73
2021/11/17 09:55:18;;;;;;;26.23;17.83;;;6.00;99.90;;;5.99;74.52;101394.41;4956702;28;20188;-73
2021/11/17 09:57:52;;;;;;;20.20;13.60;;;6.10;99.90;;;5.84;75.32;101395.97;4958157;29;20621;-74
2021/11/17 10:00:35;;;;;;;23.05;16.63;;;5.90;99.90;;;5.95;75.05;101395.75;4958782;29;20291;-73
2021/11/17 10:03:10;;;;;;;25.35;17.00;;;5.90;99.90;;;6.16;74.52;101390.78;4953941;29;20216;-73
2021/11/17 10:12:49;;;;;;;21.33;15.50;;;6.20;99.90;;;6.27;72.97;101382.44;5091881;28;20190;-74
2021/11/17 10:15:12;;;;;;;25.73;18.10;;;6.20;99.90;;;6.32;73.73;101373.88;5110347;28;20183;-73
2021/11/17 10:17:48;;;;;;;21.20;15.20;;;6.30;99.90;;;6.28;72.95;101375.22;5110380;28;20159;-74
2021/11/17 10:20:32;;;;;;;21.45;16.67;;;6.30;99.90;;;6.25;73.22;101373.69;5111494;28;20167;-72
2021/11/17 10:23:21;;;;;;;22.23;17.23;;;6.30;99.90;;;6.46;73.07;101371.41;5112242;28;20671;-72
2021/11/17 10:25:57;;;;;;;25.80;17.75;;;6.40;99.90;;;6.35;72.91;101374.41;5112321;28;20189;-72
2021/11/17 10:28:32;;;;;;;22.30;16.95;;;6.30;99.90;;;6.48;72.93;101365.88;5111958;28;20205;-73
2021/11/17 10:31:15;;;;;;;19.30;15.30;;;6.40;99.90;;;6.40;72.60;101366.69;5112683;28;20194;-73
2021/11/17 10:33:58;;;;;;;19.65;15.48;;;6.30;99.90;;;6.40;72.57;101360.47;5113890;28;20376;-73
2021/11/17 10:36:32;;;;;;;20.75;15.65;;;6.40;99.90;;;6.28;72.68;101368.00;5112407;28;20278;-73
2021/11/17 10:39:15;;;;;;;17.25;13.43;;;6.30;99.90;;;6.23;72.64;101366.81;5111762;28;20193;-74
2021/11/17 10:42:08;;;;;;;19.00;13.70;;;6.20;99.90;;;6.53;72.31;101367.06;5110717;28;20198;-73
2021/11/17 10:44:49;;;;;;;14.15;12.00;;;6.40;99.90;;;6.42;72.23;101363.84;5109616;28;20293;-73
2021/11/17 10:47:28;;;;;;;20.45;13.23;;;6.40;99.90;;;6.40;72.65;101364.00;5110622;28;20212;-73
2021/11/17 10:50:20;;;;;;;20.65;14.02;;;6.40;99.90;;;6.24;72.40;101365.81;5093924;28;20199;-74
2021/11/17 10:53:03;;;;;;;19.77;14.73;;;6.40;99.90;;;6.23;73.19;101359.59;5092968;28;20675;-74
2021/11/17 10:55:46;;;;;;;18.65;12.55;;;6.20;99.90;;;6.19;73.32;101363.63;5109951;28;20262;-73
2021/11/17 10:58:25;;;;;;;18.00;12.35;;;6.20;99.90;;;6.23;73.37;101359.59;5109631;28;20242;-72
2021/11/17 11:01:00;;;;;;;20.27;12.02;;;6.20;99.90;;;6.31;72.76;101353.38;5109919;28;20232;-73
2021/11/17 11:03:36;;;;;;;20.83;15.40;;;6.30;99.90;;;6.35;72.87;101355.59;5109730;28;20227;-74
2021/11/17 11:06:12;;;;;;;16.65;14.45;;;6.30;99.90;;;6.39;72.93;101362.31;5109809;28;20186;-73
2021/11/17 11:08:47;;;;;;;17.25;13.90;;;6.40;99.90;;;6.52;72.32;101357.31;5109421;28;20293;-72
2021/11/17 11:11:18;;;;;;;29.08;14.60;;;6.40;99.90;;;6.50;72.10;101359.31;5109676;28;20178;-73
2021/11/17 11:13:56;;;;;;;21.95;15.10;;;6.40;99.90;;;6.46;72.14;101355.28;5109547;28;20367;-73
2021/11/17 11:16:30;;;;;;;17.77;12.73;;;6.40;99.90;;;6.46;72.01;101360.66;5099387;28;20203;-75
2021/11/17 11:19:30;;;;;;;17.88;13.50;;;6.40;99.90;;;6.50;72.25;101359.31;5082894;28;20188;-73
2021/11/17 11:22:15;;;;;;;14.50;12.02;;;6.50;99.90;;;6.47;72.61;101359.66;5074154;28;20200;-74
2021/11/17 11:24:51;;;;;;;13.48;11.10;;;6.40;99.90;;;6.54;71.75;101368.75;5075985;28;20196;-74
2021/11/17 11:27:29;;;;;;;18.17;12.57;;;6.50;99.90;;;6.51;72.10;101368.22;5074453;28;20200;-73
2021/11/17 11:30:45;;;;;;;17.73;13.48;;;6.50;99.90;;;6.44;71.93;101372.56;5076130;28;20180;-74
2021/11/17 11:33:30;;;;;;;15.18;11.85;;;6.40;99.90;;;6.44;72.17;101362.66;5089221;28;20213;-74
2021/11/17 11:36:43;;;;;;;19.33;11.52;;;6.40;99.90;;;6.32;73.02;101363.13;5113606;28;20197;-74
2021/11/17 11:39:39;;;;;;;17.48;12.15;;;6.40;99.90;;;6.30;72.88;101368.66;5112550;28;20190;-73
2021/11/17 11:42:52;;;;;;;13.82;10.02;;;6.30;99.90;;;6.41;72.83;101373.75;5095858;28;20195;-74
2021/11/17 11:45:49;;;;;;;17.40;12.40;;;6.30;99.90;;;6.58;72.57;101363.06;5093533;28;20187;-73
2021/11/17 11:49:33;;;;;;;17.92;11.60;;;6.40;99.90;;;6.27;73.29;101358.25;5094494;28;20284;-74
2021/11/17 11:52:28;;;;;;;15.52;11.80;;;6.40;99.90;;;6.27;73.81;101360.94;5110107;28;20558;-73
2021/11/17 11:55:20;;;;;;;18.80;13.68;;;6.20;99.90;;;6.45;72.47;101352.75;5094547;28;20171;-74
2021/11/17 11:57:53;;;;;;;16.95;12.23;;;6.40;99.90;;;6.35;72.87;101352.91;5094481;28;20187;-74
2021/11/17 12:00:26;;;;;;;15.80;11.57;;;6.30;99.90;;;6.31;72.77;101362.28;5094424;28;20183;-73
2021/11/17 12:03:02;;;;;;;13.95;10.25;;;6.30;99.90;;;6.29;72.50;101372.38;5095180;28;20577;-73
2021/11/17 12:05:44;;;;;;;15.85;11.90;;;6.30;99.90;;;6.15;73.11;101350.66;5109501;28;20532;-73
2021/11/17 12:08:18;;;;;;;16.60;12.98;;;6.20;99.90;;;6.12;73.19;101357.19;5109865;28;20235;-75
2021/11/17 12:10:50;;;;;;;15.80;11.55;;;6.10;99.90;;;6.05;73.37;101361.53;5106265;28;20172;-73
2021/11/17 12:13:23;;;;;;;16.88;12.88;;;6.10;99.90;;;6.01;73.89;101360.16;5107772;28;20215;-73
2021/11/17 12:16:03;;;;;;;17.85;12.93;;;6.00;99.90;;;5.97;73.75;101364.16;5107203;28;20178;-73
2021/11/17 12:18:47;;;;;;;21.35;12.68;;;6.00;99.90;;;6.07;73.68;101348.78;5095823;28;20506;-73
2021/11/17 12:21:21;;;;;;;18.80;13.55;;;6.00;99.90;;;6.09;74.03;101342.25;5095637;28;20183;-74
2021/11/17 12:24:06;;;;;;;19.20;13.85;;;6.00;99.90;;;6.18;73.83;101351.19;5094445;28;20204;-72
2021/11/17 12:26:38;;;;;;;17.67;13.10;;;6.20;99.90;;;6.13;73.54;101353.50;5093411;28;20168;-73
2021/11/17 12:29:14;;;;;;;15.65;13.95;;;6.20;99.90;;;6.18;73.46;101356.53;5093846;28;20203;-72
2021/11/17 12:31:54;;;;;;;14.70;12.88;;;6.20;99.90;;;6.29;73.16;101347.34;5093964;28;20175;-73
2021/11/17 12:34:31;;;;;;;17.08;13.35;;;6.20;99.90;;;6.48;72.59;101341.69;5094904;28;20203;-72
2021/11/17 12:37:06;;;;;;;13.27;11.25;;;6.30;99.90;;;6.71;71.70;101352.66;5095097;28;20525;-73
2021/11/17 12:39:49;;;;;;;15.82;10.50;;;6.50;99.90;;;6.83;71.31;101351.31;5094356;28;20190;-74
2021/11/17 12:42:28;;;;;;;12.35;9.73;;;6.60;99.90;;;7.02;69.67;101334.81;5094560;28;20214;-73
2021/11/17 12:44:58;;;;;;;12.10;10.05;;;6.80;99.90;;;7.13;69.17;101336.34;5094229;28;20183;-73
2021/11/17 12:47:43;;;;;;;13.80;9.32;;;6.90;99.90;;;6.85;69.62;101347.44;5109954;28;20184;-73
2021/11/17 12:50:20;;;;;;;15.10;9.68;;;6.80;99.90;;;6.94;69.87;101337.53;5108679;28;20186;-73
2021/11/17 12:52:55;;;;;;;10.95;8.80;;;6.80;99.90;;;6.84;68.91;101347.59;5093943;28;20215;-73
2021/11/17 12:55:35;;;;;;;10.82;8.60;;;6.80;99.90;;;6.74;69.06;101336.16;5093013;28;20420;-72
2021/11/17 12:58:12;;;;;;;9.27;7.05;;;6.80;99.90;;;6.68;69.50;101347.59;5093985;28;20184;-73
2021/11/17 13:00:56;;;;;;;11.65;8.60;;;6.70;99.90;;;6.73;69.69;101339.88;5109752;28;20274;-74
2021/11/17 13:03:55;;;;;;;11.73;7.50;;;6.70;99.90;;;6.70;70.13;101340.19;5094488;28;20219;-78
2021/11/17 13:06:28;;;;;;;11.48;8.60;;;6.60;99.90;;;6.79;69.92;101344.56;5093816;28;20176;-73
2021/11/17 13:09:13;;;;;;;9.43;8.07;;;6.70;99.90;;;6.86;69.54;101345.59;5094109;28;20278;-74
2021/11/17 13:11:55;;;;;;;16.42;9.27;;;6.80;99.90;;;6.78;69.95;101342.88;5094719;28;20214;-74
2021/11/17 13:14:32;;;;;;;10.05;7.47;;;6.70;99.90;;;6.73;69.77;101335.31;5094078;28;20211;-74
2021/11/17 13:17:10;;;;;;;10.32;7.55;;;6.70;99.90;;;6.85;69.90;101335.84;5094459;28;20175;-75
2021/11/17 13:19:42;;;;;;;12.60;9.95;;;6.70;99.90;;;7.01;69.82;101343.94;5095192;28;20182;-75
2021/11/17 13:22:31;;;;;;;11.90;9.20;;;6.90;99.90;;;7.15;69.23;101343.25;5109740;28;20187;-76
2021/11/17 13:25:22;;;;;;;10.73;7.85;;;7.00;99.90;;;6.98;69.67;101344.25;5083965;28;118575;-75
2021/11/17 13:27:54;;;;;;;10.35;7.70;;;6.90;99.90;;;7.02;69.35;101344.78;5073289;28;20188;-73
2021/11/17 13:30:43;;;;;;;12.52;8.98;;;6.90;99.90;;;6.90;69.91;101353.19;5073382;28;20680;-74
2021/11/17 13:33:22;;;;;;;14.10;9.20;;;6.90;99.90;;;6.96;69.56;101346.28;5072011;28;20220;-74
2021/11/17 13:36:09;;;;;;;10.60;8.48;;;6.90;99.90;;;6.88;70.06;101354.34;5073017;28;20180;-74
2021/11/17 13:38:53;;;;;;;10.05;7.93;;;6.80;99.90;;;6.83;70.21;101351.31;5053464;28;20238;-75
2021/11/17 13:41:43;;;;;;;12.88;8.93;;;6.80;99.90;;;6.98;69.80;101333.50;5052908;28;20183;-73
2021/11/17 13:44:15;;;;;;;13.15;9.27;;;6.80;99.90;;;6.88;70.11;101335.50;5052719;28;20232;-75
2021/11/17 13:46:58;;;;;;;16.45;8.32;;;6.80;99.90;;;6.90;69.85;101330.81;5053157;28;20181;-74
2021/11/17 13:49:28;;;;;;;10.32;8.27;;;6.90;99.90;;;6.84;70.01;101334.16;5053079;28;20197;-73